createdAt,value
2019-02-02T00:01:46.516Z,16.03
2019-02-02T00:04:17.533Z,15.17
2019-02-02T00:06:47.072Z,14.67
2019-02-02T00:09:16.472Z,14.10
2019-02-02T00:11:45.855Z,15.30
2019-02-02T00:14:15.218Z,15.00
2019-02-02T00:16:44.714Z,14.53
2019-02-02T00:19:14.073Z,15.37
2019-02-02T00:21:43.458Z,14.73
2019-02-02T00:24:12.822Z,14.83
2019-02-02T00:26:43.344Z,14.57
2019-02-02T00:29:12.849Z,14.80
2019-02-02T00:31:42.339Z,15.83
2019-02-02T00:34:11.747Z,14.50
2019-02-02T00:36:41.205Z,15.13
2019-02-02T00:39:11.411Z,15.27
2019-02-02T00:41:40.831Z,16.27
2019-02-02T00:44:10.189Z,15.27
2019-02-02T00:46:39.555Z,14.90
2019-02-02T00:49:10.390Z,14.83
2019-02-02T00:51:39.754Z,14.00
2019-02-02T00:54:09.378Z,14.07
2019-02-02T00:56:40.453Z,15.67
2019-02-02T00:59:09.870Z,14.67
2019-02-02T01:01:39.513Z,15.67
2019-02-02T01:04:08.988Z,13.70
2019-02-02T01:06:38.378Z,13.70
2019-02-02T01:09:17.660Z,12.53
2019-02-02T01:11:47.032Z,14.40
2019-02-02T01:14:16.539Z,13.47
2019-02-02T01:16:45.926Z,14.73
2019-02-02T01:19:15.351Z,14.50
2019-02-02T01:21:44.677Z,13.83
2019-02-02T01:24:14.048Z,13.23
2019-02-02T01:26:43.391Z,13.73
2019-02-02T01:29:12.860Z,12.80
2019-02-02T01:31:42.255Z,13.23
2019-02-02T01:34:11.860Z,11.47
2019-02-02T01:36:41.283Z,13.50
2019-02-02T01:39:13.797Z,13.57
2019-02-02T01:41:43.213Z,13.73
2019-02-02T01:44:12.531Z,14.30
2019-02-02T01:46:41.857Z,13.40
2019-02-02T01:49:11.221Z,12.60
2019-02-02T01:51:40.531Z,13.07
2019-02-02T01:54:09.960Z,12.43
2019-02-02T01:56:39.255Z,12.33
2019-02-02T01:59:08.564Z,12.67
2019-02-02T02:01:37.924Z,11.57
2019-02-02T02:04:07.267Z,12.47
2019-02-02T02:06:36.788Z,11.80
2019-02-02T02:09:08.065Z,12.07
2019-02-02T02:11:37.545Z,12.93
2019-02-02T02:14:07.088Z,12.77
2019-02-02T02:16:36.509Z,11.40
2019-02-02T02:19:05.891Z,11.77
2019-02-02T02:21:35.266Z,12.10
2019-02-02T02:24:04.848Z,10.80
2019-02-02T02:26:34.224Z,11.63
2019-02-02T02:29:03.596Z,11.63
2019-02-02T02:31:32.931Z,11.17
2019-02-02T02:34:02.303Z,11.60
2019-02-02T02:36:31.779Z,11.60
2019-02-02T02:39:01.286Z,11.50
2019-02-02T02:41:30.749Z,11.57
2019-02-02T02:44:00.114Z,11.27
2019-02-02T02:46:29.481Z,11.97
2019-02-02T02:48:58.953Z,11.60
2019-02-02T02:51:28.338Z,11.87
2019-02-02T02:53:57.708Z,12.60
2019-02-02T02:56:27.048Z,11.70
2019-02-02T02:58:56.460Z,12.07
2019-02-02T03:01:25.782Z,11.53
2019-02-02T03:03:55.157Z,10.37
2019-02-02T03:06:24.536Z,12.20
2019-02-02T03:08:53.999Z,11.60
2019-02-02T03:11:23.370Z,11.73
2019-02-02T03:13:52.701Z,11.43
2019-02-02T03:16:22.064Z,11.67
2019-02-02T03:18:51.500Z,11.90
2019-02-02T03:21:20.855Z,12.73
2019-02-02T03:23:50.237Z,12.17
2019-02-02T03:26:19.565Z,12.60
2019-02-02T03:28:53.643Z,12.43
2019-02-02T03:31:19.992Z,14.20
2019-02-02T03:33:49.351Z,12.10
2019-02-02T03:36:18.732Z,14.30
2019-02-02T03:38:48.195Z,13.63
2019-02-02T03:41:17.526Z,14.20
2019-02-02T03:43:46.852Z,14.80
2019-02-02T03:46:16.170Z,13.43
2019-02-02T03:48:45.471Z,14.40
2019-02-02T03:51:14.874Z,14.03
2019-02-02T03:53:44.163Z,15.03
2019-02-02T03:56:13.546Z,15.40
2019-02-02T03:58:42.859Z,14.77
2019-02-02T04:01:12.376Z,16.67
2019-02-02T04:03:41.798Z,16.70
2019-02-02T04:06:11.499Z,16.43
2019-02-02T04:08:40.866Z,16.63
2019-02-02T04:11:10.395Z,17.70
2019-02-02T04:13:39.823Z,15.50
2019-02-02T04:16:09.252Z,15.03
2019-02-02T04:18:38.942Z,14.43
2019-02-02T04:21:08.285Z,15.83
2019-02-02T04:23:37.652Z,15.10
2019-02-02T04:26:07.000Z,15.43
2019-02-02T04:28:36.348Z,15.17
2019-02-02T04:31:05.761Z,15.97
2019-02-02T04:33:35.099Z,15.90
2019-02-02T04:36:04.534Z,16.63
2019-02-02T04:38:33.906Z,15.33
2019-02-02T04:41:03.229Z,16.27
2019-02-02T04:43:32.610Z,15.47
2019-02-02T04:46:01.952Z,15.70
2019-02-02T04:48:32.542Z,17.57
2019-02-02T04:51:02.013Z,15.70
2019-02-02T04:53:31.333Z,17.47
2019-02-02T04:56:00.640Z,16.07
2019-02-02T04:58:30.043Z,17.50
2019-02-02T05:00:59.424Z,17.00
2019-02-02T05:03:28.854Z,17.67
2019-02-02T05:05:58.191Z,16.63
2019-02-02T05:08:27.520Z,16.07
2019-02-02T05:10:56.876Z,16.00
2019-02-02T05:13:26.215Z,16.67
2019-02-02T05:15:55.564Z,16.10
2019-02-02T05:18:25.112Z,15.73
2019-02-02T05:20:54.508Z,15.50
2019-02-02T05:23:23.894Z,16.03
2019-02-02T05:25:53.283Z,15.17
2019-02-02T05:28:22.631Z,16.87
2019-02-02T05:30:52.013Z,15.63
2019-02-02T05:33:21.444Z,15.97
2019-02-02T05:35:50.793Z,14.97
2019-02-02T05:38:20.351Z,14.33
2019-02-02T05:40:49.798Z,15.47
2019-02-02T05:43:19.222Z,15.43
2019-02-02T05:45:48.711Z,15.70
2019-02-02T05:48:18.042Z,16.47
2019-02-02T05:50:47.529Z,15.70
2019-02-02T05:53:16.854Z,16.27
2019-02-02T05:55:46.275Z,15.83
2019-02-02T05:58:15.573Z,18.03
2019-02-02T06:00:50.591Z,18.80
2019-02-02T06:03:20.100Z,15.43
2019-02-02T06:05:49.576Z,15.43
2019-02-02T06:08:18.935Z,14.63
2019-02-02T06:10:48.488Z,13.60
2019-02-02T06:13:17.833Z,16.07
2019-02-02T06:15:47.252Z,14.53
2019-02-02T06:18:16.683Z,13.63
2019-02-02T06:20:46.027Z,14.07
2019-02-02T06:23:15.376Z,14.37
2019-02-02T06:25:44.790Z,12.90
2019-02-02T06:28:14.091Z,12.73
2019-02-02T06:30:43.967Z,12.57
2019-02-02T06:33:13.312Z,13.37
2019-02-02T06:35:42.691Z,14.17
2019-02-02T06:38:12.105Z,12.97
2019-02-02T06:40:41.768Z,14.07
2019-02-02T06:43:11.129Z,12.23
2019-02-02T06:45:40.492Z,13.10
2019-02-02T06:48:09.827Z,13.90
2019-02-02T06:50:39.271Z,13.30
2019-02-02T06:53:08.686Z,12.17
2019-02-02T06:55:37.988Z,12.67
2019-02-02T06:58:07.320Z,11.70
2019-02-02T07:00:36.752Z,11.43
2019-02-02T07:03:06.103Z,11.27
2019-02-02T07:05:35.448Z,10.40
2019-02-02T07:08:04.886Z,10.77
2019-02-02T07:10:34.404Z,11.57
2019-02-02T07:13:03.832Z,12.63
2019-02-02T07:15:33.151Z,10.80
2019-02-02T07:18:02.583Z,11.20
2019-02-02T07:20:32.007Z,12.33
2019-02-02T07:23:01.384Z,11.00
2019-02-02T07:25:30.740Z,11.27
2019-02-02T07:28:00.160Z,11.30
2019-02-02T07:30:29.964Z,11.27
2019-02-02T07:32:59.460Z,11.13
2019-02-02T07:35:29.013Z,11.33
2019-02-02T07:37:58.452Z,12.20
2019-02-02T07:40:27.954Z,11.93
2019-02-02T07:42:57.506Z,10.80
2019-02-02T07:45:29.106Z,11.03
2019-02-02T07:47:58.481Z,11.80
2019-02-02T07:50:28.161Z,11.10
2019-02-02T07:52:57.511Z,11.03
2019-02-02T07:55:27.084Z,11.43
2019-02-02T07:57:56.453Z,11.97
2019-02-02T08:00:40.297Z,10.70
2019-02-02T08:03:02.674Z,10.27
2019-02-02T08:05:32.323Z,10.53
2019-02-02T08:08:01.669Z,11.20
2019-02-02T08:10:31.165Z,10.57
2019-02-02T08:13:00.536Z,11.73
2019-02-02T08:15:31.452Z,11.17
2019-02-02T08:18:00.825Z,11.17
2019-02-02T08:20:30.236Z,11.77
2019-02-02T08:22:59.616Z,10.93
2019-02-02T08:25:29.052Z,11.13
2019-02-02T08:27:58.532Z,11.03
2019-02-02T08:30:30.037Z,12.30
2019-02-02T08:32:59.589Z,11.23
2019-02-02T08:35:29.162Z,11.30
2019-02-02T08:37:58.520Z,11.20
2019-02-02T08:40:28.111Z,11.67
2019-02-02T08:42:57.533Z,12.97
2019-02-02T08:45:26.995Z,12.50
2019-02-02T08:47:56.433Z,12.47
2019-02-02T08:50:31.256Z,12.60
2019-02-02T08:53:00.782Z,13.43
2019-02-02T08:55:30.213Z,12.97
2019-02-02T08:57:59.626Z,13.53
2019-02-02T09:00:29.182Z,12.57
2019-02-02T09:02:58.546Z,12.87
2019-02-02T09:05:27.942Z,12.10
2019-02-02T09:07:57.285Z,11.27
2019-02-02T09:10:28.035Z,12.00
2019-02-02T09:12:57.838Z,11.00
2019-02-02T09:15:27.619Z,11.13
2019-02-02T09:17:57.075Z,11.07
2019-02-02T09:20:26.443Z,11.27
2019-02-02T09:23:04.221Z,11.33
2019-02-02T09:25:27.121Z,12.10
2019-02-02T09:27:56.701Z,12.17
2019-02-02T09:30:34.185Z,12.27
2019-02-02T09:33:03.785Z,13.80
2019-02-02T09:35:33.343Z,13.53
2019-02-02T09:38:02.839Z,13.13
2019-02-02T09:40:32.304Z,14.43
2019-02-02T09:43:01.716Z,13.27
2019-02-02T09:45:31.112Z,12.73
2019-02-02T09:48:00.718Z,15.23
2019-02-02T09:50:30.164Z,14.70
2019-02-02T09:52:59.587Z,16.17
2019-02-02T09:55:28.990Z,16.57
2019-02-02T09:58:01.473Z,17.37
2019-02-02T10:00:31.741Z,17.90
2019-02-02T10:03:01.210Z,19.30
2019-02-02T10:05:31.287Z,20.77
2019-02-02T10:08:00.824Z,20.37
2019-02-02T10:10:31.968Z,20.33
2019-02-02T10:13:01.284Z,20.50
2019-02-02T10:15:30.641Z,20.90
2019-02-02T10:18:00.088Z,21.47
2019-02-02T10:20:30.266Z,21.23
2019-02-02T10:23:00.136Z,22.13
2019-02-02T10:25:30.671Z,20.53
2019-02-02T10:28:00.094Z,20.37
2019-02-02T10:30:37.584Z,21.27
2019-02-02T10:33:07.258Z,20.87
2019-02-02T10:35:36.715Z,22.27
2019-02-02T10:38:06.588Z,20.27
2019-02-02T10:40:36.267Z,18.87
2019-02-02T10:43:05.975Z,21.70
2019-02-02T10:45:35.499Z,20.17
2019-02-02T10:48:05.283Z,19.47
2019-02-02T10:50:34.873Z,21.33
2019-02-02T10:53:04.288Z,18.57
2019-02-02T10:55:33.799Z,22.57
2019-02-02T10:58:03.188Z,21.67
2019-02-02T11:00:34.051Z,22.33
2019-02-02T11:03:03.706Z,22.00
2019-02-02T11:05:33.282Z,21.60
2019-02-02T11:08:03.069Z,20.07
2019-02-02T11:10:33.128Z,22.07
2019-02-02T11:13:02.859Z,21.50
2019-02-02T11:15:32.243Z,20.17
2019-02-02T11:18:01.977Z,22.53
2019-02-02T11:20:32.991Z,23.27
2019-02-02T11:23:02.517Z,29.20
2019-02-02T11:25:32.100Z,24.73
2019-02-02T11:28:01.597Z,25.53
2019-02-02T11:30:31.638Z,25.20
2019-02-02T11:33:01.087Z,25.00
2019-02-02T11:35:30.583Z,27.37
2019-02-02T11:38:00.130Z,26.10
2019-02-02T11:40:31.146Z,26.10
2019-02-02T11:43:01.127Z,29.07
2019-02-02T11:45:30.709Z,27.20
2019-02-02T11:48:00.088Z,27.13
2019-02-02T11:50:29.741Z,30.47
2019-02-02T11:52:59.271Z,25.90
2019-02-02T11:55:28.945Z,26.73
2019-02-02T11:57:58.482Z,23.53
2019-02-02T12:00:29.752Z,25.87
2019-02-02T12:02:59.637Z,23.97
2019-02-02T12:05:29.136Z,26.43
2019-02-02T12:07:58.492Z,27.33
2019-02-02T12:10:28.553Z,25.83
2019-02-02T12:12:57.922Z,26.30
2019-02-02T12:15:27.478Z,26.33
2019-02-02T12:17:56.971Z,26.10
2019-02-02T12:20:26.504Z,25.83
2019-02-02T12:22:55.949Z,28.03
2019-02-02T12:25:25.454Z,24.70
2019-02-02T12:27:55.226Z,26.00
2019-02-02T12:30:27.224Z,26.00
2019-02-02T12:32:56.916Z,25.73
2019-02-02T12:35:26.794Z,26.40
2019-02-02T12:37:56.410Z,28.23
2019-02-02T12:40:26.182Z,30.33
2019-02-02T12:42:55.796Z,28.30
2019-02-02T12:45:28.131Z,29.70
2019-02-02T12:47:57.656Z,29.47
2019-02-02T12:50:27.074Z,30.43
2019-02-02T12:52:59.241Z,29.03
2019-02-02T12:55:28.648Z,25.40
2019-02-02T12:57:58.350Z,25.57
2019-02-02T13:00:27.875Z,33.75
2019-02-02T13:02:57.470Z,33.33
2019-02-02T13:05:27.148Z,27.00
2019-02-02T13:07:56.527Z,26.93
2019-02-02T13:10:26.898Z,25.57
2019-02-02T13:12:56.375Z,26.33
2019-02-02T13:15:25.825Z,28.40
2019-02-02T13:17:55.336Z,26.50
2019-02-02T13:20:24.903Z,30.00
2019-02-02T13:22:54.378Z,30.07
2019-02-02T13:25:23.996Z,29.90
2019-02-02T13:27:53.422Z,33.13
2019-02-02T13:30:31.436Z,31.10
2019-02-02T13:33:00.980Z,31.97
2019-02-02T13:35:31.675Z,34.80
2019-02-02T13:38:01.131Z,33.90
2019-02-02T13:40:30.581Z,35.27
2019-02-02T13:43:00.221Z,36.07
2019-02-02T13:45:29.654Z,31.80
2019-02-02T13:47:59.002Z,32.37
2019-02-02T13:50:28.460Z,33.13
2019-02-02T13:52:57.872Z,32.80
2019-02-02T13:55:27.335Z,32.90
2019-02-02T13:57:56.753Z,28.23
2019-02-02T14:00:28.299Z,33.43
2019-02-02T14:03:02.820Z,29.53
2019-02-02T14:05:29.015Z,30.90
2019-02-02T14:08:00.284Z,34.60
2019-02-02T14:10:30.687Z,31.20
2019-02-02T14:13:00.053Z,30.67
2019-02-02T14:15:29.488Z,28.87
2019-02-02T14:17:58.953Z,30.77
2019-02-02T14:20:28.372Z,30.43
2019-02-02T14:22:58.013Z,32.40
2019-02-02T14:25:27.540Z,29.50
2019-02-02T14:27:57.082Z,31.77
2019-02-02T14:30:26.852Z,31.27
2019-02-02T14:32:56.281Z,32.43
2019-02-02T14:35:27.075Z,30.60
2019-02-02T14:37:56.483Z,31.07
2019-02-02T14:40:25.863Z,32.93
2019-02-02T14:42:55.282Z,33.30
2019-02-02T14:45:27.354Z,34.80
2019-02-02T14:47:56.504Z,33.37
2019-02-02T14:50:26.247Z,32.80
2019-02-02T14:52:55.890Z,35.30
2019-02-02T14:55:27.237Z,34.93
2019-02-02T14:57:56.822Z,37.90
2019-02-02T15:00:29.889Z,35.27
2019-02-02T15:03:00.101Z,33.37
2019-02-02T15:05:42.166Z,37.67
2019-02-02T15:08:02.287Z,35.23
2019-02-02T15:10:32.099Z,36.63
2019-02-02T15:13:01.858Z,38.83
2019-02-02T15:15:31.595Z,33.93
2019-02-02T15:18:01.070Z,33.57
2019-02-02T15:20:38.161Z,40.03
2019-02-02T15:23:11.935Z,38.23
2019-02-02T15:25:42.544Z,39.93
2019-02-02T15:28:12.238Z,37.53
2019-02-02T15:30:46.220Z,39.67
2019-02-02T15:33:16.842Z,42.30
2019-02-02T15:35:46.445Z,38.00
2019-02-02T15:38:18.790Z,40.27
2019-02-02T15:40:58.477Z,42.07
2019-02-02T15:43:18.172Z,43.13
2019-02-02T15:45:47.658Z,41.00
2019-02-02T15:48:17.087Z,38.73
2019-02-02T15:50:46.516Z,37.63
2019-02-02T15:53:15.999Z,40.83
2019-02-02T15:55:45.455Z,43.00
2019-02-02T15:58:14.901Z,41.30
2019-02-02T16:00:44.367Z,42.50
2019-02-02T16:03:13.798Z,42.13
2019-02-02T16:05:43.243Z,43.80
2019-02-02T16:08:16.565Z,43.40
2019-02-02T16:10:46.200Z,41.93
2019-02-02T16:13:15.631Z,42.77
2019-02-02T16:15:45.121Z,45.43
2019-02-02T16:18:14.558Z,42.73
2019-02-02T16:20:45.191Z,46.57
2019-02-02T16:23:14.729Z,47.60
2019-02-02T16:25:44.155Z,60.35
2019-02-02T16:28:13.726Z,48.73
2019-02-02T16:30:43.411Z,49.43
2019-02-02T16:33:12.967Z,45.87
2019-02-02T16:35:42.569Z,44.07
2019-02-02T16:38:12.092Z,46.57
2019-02-02T16:40:41.625Z,41.17
2019-02-02T16:43:11.073Z,45.87
2019-02-02T16:45:40.519Z,45.47
2019-02-02T16:48:09.927Z,49.67
2019-02-02T16:50:39.341Z,48.80
2019-02-02T16:53:08.888Z,47.90
2019-02-02T16:55:38.530Z,47.43
2019-02-02T16:58:08.184Z,45.53
2019-02-02T17:00:38.386Z,47.53
2019-02-02T17:03:07.944Z,45.03
2019-02-02T17:05:37.308Z,48.87
2019-02-02T17:08:06.955Z,49.50
2019-02-02T17:10:40.468Z,57.53
2019-02-02T17:13:10.040Z,47.43
2019-02-02T17:15:39.504Z,45.60
2019-02-02T17:18:08.906Z,44.97
2019-02-02T17:20:40.701Z,44.93
2019-02-02T17:23:10.164Z,46.37
2019-02-02T17:25:39.666Z,40.50
2019-02-02T17:28:09.391Z,43.03
2019-02-02T17:30:39.174Z,45.77
2019-02-02T17:33:10.858Z,43.63
2019-02-02T17:35:40.349Z,42.93
2019-02-02T17:38:09.735Z,42.30
2019-02-02T17:40:39.284Z,39.83
2019-02-02T17:43:10.760Z,44.53
2019-02-02T17:45:40.408Z,44.37
2019-02-02T17:48:12.906Z,44.23
2019-02-02T17:50:41.269Z,37.50
2019-02-02T17:53:10.806Z,39.43
2019-02-02T17:55:40.318Z,39.53
2019-02-02T17:58:09.836Z,39.03
2019-02-02T18:00:47.576Z,38.10
2019-02-02T18:03:16.910Z,36.40
2019-02-02T18:05:46.435Z,36.10
2019-02-02T18:08:15.778Z,35.60
2019-02-02T18:10:45.256Z,38.23
2019-02-02T18:13:14.841Z,38.00
2019-02-02T18:15:44.224Z,37.47
2019-02-02T18:18:13.714Z,36.93
2019-02-02T18:20:43.212Z,36.43
2019-02-02T18:23:12.722Z,37.83
2019-02-02T18:25:42.222Z,34.03
2019-02-02T18:28:11.758Z,34.47
2019-02-02T18:30:41.186Z,36.40
2019-02-02T18:33:10.704Z,36.00
2019-02-02T18:35:40.326Z,35.67
2019-02-02T18:38:09.719Z,36.77
2019-02-02T18:40:40.086Z,36.60
2019-02-02T18:43:09.655Z,35.47
2019-02-02T18:45:39.058Z,36.13
2019-02-02T18:48:08.689Z,36.77
2019-02-02T18:50:38.178Z,35.60
2019-02-02T18:53:07.645Z,35.43
2019-02-02T18:55:57.647Z,37.87
2019-02-02T18:58:27.123Z,37.43
2019-02-02T19:00:56.558Z,37.50
2019-02-02T19:03:25.997Z,39.23
2019-02-02T19:05:55.351Z,39.40
2019-02-02T19:08:24.899Z,39.13
2019-02-02T19:10:54.341Z,42.07
2019-02-02T19:15:58.667Z,42.20
2019-02-02T19:18:28.084Z,41.23
2019-02-02T19:20:57.485Z,43.83
2019-02-02T19:23:26.949Z,43.70
2019-02-02T19:25:56.463Z,43.57
2019-02-02T19:28:28.255Z,41.53
2019-02-02T19:30:56.935Z,43.67
2019-02-02T19:33:26.363Z,44.70
2019-02-02T19:35:55.871Z,43.87
2019-02-02T19:38:25.381Z,44.47
2019-02-02T19:40:54.808Z,45.10
2019-02-02T19:43:24.161Z,44.90
2019-02-02T19:45:53.786Z,45.80
2019-02-02T19:48:23.373Z,51.63
2019-02-02T19:50:52.766Z,47.07
2019-02-02T19:53:22.230Z,50.20
2019-02-02T19:55:51.664Z,48.50
2019-02-02T19:58:21.176Z,50.77
2019-02-02T20:00:50.566Z,50.83
2019-02-02T20:03:19.972Z,49.90
2019-02-02T20:05:49.526Z,48.97
2019-02-02T20:08:18.987Z,48.47
2019-02-02T20:10:48.490Z,53.20
2019-02-02T20:13:19.598Z,54.17
2019-02-02T20:15:49.197Z,53.33
2019-02-02T20:18:18.614Z,53.40
2019-02-02T20:20:48.060Z,52.87
2019-02-02T20:23:17.517Z,52.97
2019-02-02T20:25:47.069Z,54.07
2019-02-02T20:28:16.590Z,56.67
2019-02-02T20:30:46.030Z,55.43
2019-02-02T20:33:15.452Z,57.97
2019-02-02T20:35:44.941Z,55.73
2019-02-02T20:38:14.386Z,56.40
2019-02-02T20:40:43.906Z,55.33
2019-02-02T20:43:13.348Z,59.03
2019-02-02T20:45:42.822Z,58.47
2019-02-02T20:48:12.329Z,58.47
2019-02-02T20:50:41.851Z,57.43
2019-02-02T20:53:11.199Z,56.00
2019-02-02T20:55:42.831Z,55.23
2019-02-02T20:58:12.197Z,55.10
2019-02-02T21:00:41.633Z,55.30
2019-02-02T21:03:11.144Z,49.47
2019-02-02T21:05:51.594Z,41.77
2019-02-02T21:08:11.765Z,49.57
2019-02-02T21:10:41.218Z,48.50
2019-02-02T21:13:12.670Z,49.90
2019-02-02T21:15:42.851Z,44.17
2019-02-02T21:18:12.304Z,47.20
2019-02-02T21:20:41.845Z,50.10
2019-02-02T21:23:11.461Z,47.50
2019-02-02T21:25:41.000Z,41.70
2019-02-02T21:28:10.481Z,51.23
2019-02-02T21:30:39.928Z,49.47
2019-02-02T21:33:09.521Z,46.40
2019-02-02T21:35:38.989Z,49.13
2019-02-02T21:38:08.466Z,51.13
2019-02-02T21:40:37.991Z,42.67
2019-02-02T21:43:08.804Z,48.00
2019-02-02T21:45:38.444Z,49.67
2019-02-02T21:48:08.280Z,49.20
2019-02-02T21:50:37.754Z,49.33
2019-02-02T21:53:07.205Z,47.57
2019-02-02T21:55:36.651Z,44.37
2019-02-02T21:58:06.253Z,49.63
2019-02-02T22:00:37.827Z,45.97
2019-02-02T22:03:07.999Z,47.30
2019-02-02T22:05:37.754Z,48.03
2019-02-02T22:08:08.570Z,47.27
2019-02-02T22:10:38.325Z,48.97
2019-02-02T22:13:10.644Z,46.07
2019-02-02T22:15:40.129Z,49.13
2019-02-02T22:18:09.636Z,47.40
2019-02-02T22:20:39.119Z,46.77
2019-02-02T22:23:09.069Z,49.27
2019-02-02T22:25:38.583Z,47.20
2019-02-02T22:28:08.375Z,48.17
2019-02-02T22:30:38.284Z,46.93
2019-02-02T22:33:07.925Z,47.17
2019-02-02T22:35:37.652Z,48.20
2019-02-02T22:38:07.076Z,47.40
2019-02-02T22:40:36.432Z,47.23
2019-02-02T22:43:06.171Z,48.53
2019-02-02T22:45:35.641Z,49.47
2019-02-02T22:48:06.192Z,44.50
2019-02-02T22:50:35.650Z,46.97
2019-02-02T22:53:05.329Z,47.97
2019-02-02T22:55:34.909Z,45.13
2019-02-02T22:58:06.811Z,48.60
2019-02-02T23:01:11.949Z,45.50
2019-02-02T23:04:31.593Z,43.40
2019-02-02T23:07:43.919Z,40.03
2019-02-02T23:10:57.330Z,44.10
2019-02-02T23:14:04.983Z,41.93
2019-02-02T23:16:34.831Z,43.03
2019-02-02T23:19:04.683Z,45.33
2019-02-02T23:21:34.117Z,42.37
2019-02-02T23:24:03.647Z,42.97
2019-02-02T23:26:33.070Z,44.93
2019-02-02T23:29:02.591Z,46.57
2019-02-02T23:31:32.020Z,44.77
2019-02-02T23:34:01.667Z,44.13
2019-02-02T23:36:31.300Z,41.97
2019-02-02T23:39:00.875Z,44.27
2019-02-02T23:41:30.399Z,44.03
2019-02-02T23:44:00.023Z,43.97
2019-02-02T23:46:29.438Z,48.53
2019-02-02T23:49:00.532Z,47.57
2019-02-02T23:51:29.871Z,46.83
2019-02-02T23:53:59.861Z,49.17
2019-02-02T23:56:29.614Z,50.20
2019-02-02T23:58:59.029Z,48.60
